Time;durP1;ratioP1;P1;durP2;ratioP2;P2;SDS_P1;SDS_P2;PMS_P1;PMS_P2;Temp;Humidity;BMP_temperature;BMP_pressure;BME280_temperature;BME280_humidity;BME280_pressure;Samples;Min_cycle;Max_cycle;Signal;HPM_P1;HPM_P2
2021/03/31 00:00:45;;;;;;;9.88;6.32;;;17.70;32.50;;;;;;2114027;28;20126;-58
2021/03/31 00:02:06;;;;;;;;;;;17.60;32.80;;;;;;2105705;28;20024;-58
2021/03/31 00:03:26;;;;;;;9.10;5.72;;;17.60;32.40;;;;;;2112339;27;19907;-58
2021/03/31 00:04:47;;;;;;;7.95;5.45;;;17.60;32.10;;;;;;2112296;28;20116;-58
2021/03/31 00:06:08;;;;;;;9.32;5.80;;;17.60;32.40;;;;;;2112485;28;20081;-58
2021/03/31 00:07:29;;;;;;;9.95;5.90;;;17.50;32.50;;;;;;2107409;28;20035;-58
2021/03/31 00:08:50;;;;;;;8.90;6.05;;;17.50;32.70;;;;;;2110547;28;20180;-57
2021/03/31 00:10:26;;;;;;;8.02;5.93;;;17.40;32.70;;;;;;2111207;28;20423;-57
2021/03/31 00:11:47;;;;;;;8.95;5.88;;;17.40;33.00;;;;;;2110870;28;20031;-58
2021/03/31 00:13:08;;;;;;;9.65;5.35;;;17.40;32.80;;;;;;2110994;28;20040;-56
2021/03/31 00:14:29;;;;;;;7.57;5.47;;;17.30;32.70;;;;;;2113489;28;20031;-58
2021/03/31 00:15:52;;;;;;;8.25;5.30;;;17.30;32.80;;;;;;2112509;28;20039;-58
2021/03/31 00:17:15;;;;;;;8.40;5.47;;;17.30;33.20;;;;;;2112141;28;20052;-59
2021/03/31 00:18:36;;;;;;;7.35;4.80;;;17.20;33.20;;;;;;2109128;28;20114;-59
2021/03/31 00:19:56;;;;;;;6.57;4.75;;;17.20;33.20;;;;;;2112077;28;20072;-59
2021/03/31 00:21:18;;;;;;;8.57;4.13;;;17.20;33.20;;;;;;2111081;28;20538;-58
2021/03/31 00:22:39;;;;;;;9.68;4.80;;;17.20;33.20;;;;;;2112237;28;20031;-58
2021/03/31 00:24:00;;;;;;;7.43;4.70;;;17.20;33.60;;;;;;2110688;28;20038;-56
2021/03/31 00:25:21;;;;;;;7.50;4.78;;;17.20;33.60;;;;;;2112101;28;20032;-57
2021/03/31 00:26:41;;;;;;;6.57;4.40;;;17.20;34.30;;;;;;2108348;28;20039;-58
2021/03/31 00:28:03;;;;;;;7.82;5.15;;;17.10;34.00;;;;;;2111095;28;20036;-58
2021/03/31 00:29:24;;;;;;;7.45;4.53;;;17.10;34.00;;;;;;2113373;28;20031;-57
2021/03/31 00:30:45;;;;;;;7.63;4.35;;;17.10;34.20;;;;;;2114178;27;20042;-57
2021/03/31 00:32:06;;;;;;;15.30;4.80;;;17.20;34.30;;;;;;2104356;28;20541;-57
2021/03/31 00:33:27;;;;;;;7.10;4.05;;;17.10;34.10;;;;;;2109022;28;20114;-58
2021/03/31 00:34:48;;;;;;;7.70;4.40;;;17.10;33.90;;;;;;2111683;28;20031;-58
2021/03/31 00:36:09;;;;;;;7.57;4.07;;;17.10;33.90;;;;;;2110922;28;20116;-58
2021/03/31 00:37:30;;;;;;;5.82;4.40;;;17.10;34.00;;;;;;2110826;28;20024;-58
2021/03/31 00:38:51;;;;;;;5.38;3.60;;;17.10;33.90;;;;;;2110543;28;20027;-58
2021/03/31 00:40:15;;;;;;;4.90;4.03;;;17.10;33.90;;;;;;2112391;28;20028;-57
2021/03/31 00:41:35;;;;;;;4.72;3.45;;;17.20;33.90;;;;;;2112520;28;20525;-58
2021/03/31 00:42:56;;;;;;;5.93;3.72;;;17.10;33.90;;;;;;2110180;28;20151;-57
2021/03/31 00:44:19;;;;;;;5.82;4.03;;;17.10;33.80;;;;;;2112190;28;20296;-58
2021/03/31 00:45:41;;;;;;;5.88;3.90;;;17.20;33.80;;;;;;2108964;28;20105;-58
2021/03/31 00:47:03;;;;;;;7.97;4.22;;;17.20;33.80;;;;;;2112975;28;20023;-58
2021/03/31 00:48:24;;;;;;;5.63;3.72;;;17.20;33.70;;;;;;2106462;28;20028;-58
2021/03/31 00:49:45;;;;;;;5.63;3.30;;;17.20;33.60;;;;;;2112738;28;20032;-58
2021/03/31 00:51:06;;;;;;;6.80;3.75;;;17.20;33.60;;;;;;2109965;28;20036;-58
2021/03/31 00:52:27;;;;;;;4.55;3.17;;;17.20;33.50;;;;;;2112577;28;20209;-58
2021/03/31 00:53:48;;;;;;;5.68;3.45;;;17.20;33.50;;;;;;2095680;28;20029;-58
2021/03/31 00:55:11;;;;;;;5.68;3.53;;;17.20;33.50;;;;;;2105323;28;20035;-58
2021/03/31 00:56:32;;;;;;;5.40;3.55;;;17.20;33.70;;;;;;2112428;28;20032;-56
2021/03/31 00:57:53;;;;;;;6.30;3.55;;;17.20;34.10;;;;;;2112691;28;20547;-58
2021/03/31 00:59:14;;;;;;;5.72;3.22;;;17.30;33.70;;;;;;2112027;27;20118;-58
2021/03/31 01:00:35;;;;;;;5.05;3.35;;;17.30;33.50;;;;;;2106951;28;20282;-59
2021/03/31 01:01:56;;;;;;;6.55;3.88;;;17.30;33.60;;;;;;2111032;27;20470;-56
2021/03/31 01:03:17;;;;;;;4.47;2.90;;;17.30;33.50;;;;;;2112955;28;20210;-56
2021/03/31 01:04:38;;;;;;;8.43;4.07;;;17.30;33.50;;;;;;2112759;28;20092;-58
2021/03/31 01:05:59;;;;;;;5.47;3.65;;;17.30;33.30;;;;;;2110879;28;20382;-58
2021/03/31 01:07:20;;;;;;;4.55;3.25;;;17.30;33.20;;;;;;2112267;28;20035;-58
2021/03/31 01:08:41;;;;;;;6.10;3.22;;;17.40;33.20;;;;;;2108579;28;20138;-58
2021/03/31 01:10:03;;;;;;;4.95;3.28;;;17.30;33.20;;;;;;2110095;28;20059;-58
2021/03/31 01:11:42;;;;;;;8.88;4.10;;;17.30;33.10;;;;;;2112304;28;20028;-57
2021/03/31 01:13:12;;;;;;;7.22;3.53;;;17.30;33.00;;;;;;2110958;28;20478;-58
2021/03/31 01:14:51;;;;;;;10.60;3.03;;;17.40;33.10;;;;;;2101350;28;20085;-56
2021/03/31 01:16:31;;;;;;;4.10;3.15;;;17.40;33.10;;;;;;2111307;28;20058;-57
2021/03/31 01:17:57;;;;;;;4.80;3.15;;;17.40;33.00;;;;;;2110113;28;20686;-56
2021/03/31 01:19:43;;;;;;;4.30;3.20;;;17.50;33.20;;;;;;2113153;28;20420;-59
2021/03/31 01:21:22;;;;;;;4.22;2.90;;;17.40;33.70;;;;;;2113035;27;20054;-59
2021/03/31 01:23:05;;;;;;;3.50;3.10;;;17.40;33.20;;;;;;2108877;28;20024;-59
2021/03/31 01:24:56;;;;;;;5.90;3.15;;;17.40;33.50;;;;;;2105878;28;20035;-58
2021/03/31 01:26:29;;;;;;;5.03;2.85;;;17.50;33.70;;;;;;2100665;28;20031;-58
2021/03/31 01:27:49;;;;;;;8.73;3.38;;;17.40;33.50;;;;;;2109022;28;20539;-58
2021/03/31 01:29:19;;;;;;;4.50;3.42;;;17.40;33.20;;;;;;2111189;28;20458;-58
2021/03/31 01:30:59;;;;;;;8.38;3.38;;;17.40;33.40;;;;;;2117203;27;20031;-59
2021/03/31 01:32:57;;;;;;;5.00;3.10;;;17.40;34.10;;;;;;2107467;28;20036;-59
2021/03/31 01:34:34;;;;;;;4.50;2.97;;;17.40;34.40;;;;;;2099706;28;20051;-57
2021/03/31 01:35:55;;;;;;;6.38;3.15;;;17.40;34.60;;;;;;2110776;27;20510;-59
2021/03/31 01:37:25;;;;;;;4.07;3.25;;;17.30;34.20;;;;;;2112045;28;20049;-58
2021/03/31 01:38:54;;;;;;;4.53;3.40;;;17.30;34.50;;;;;;2108366;28;20035;-57
2021/03/31 01:40:18;;;;;;;5.40;3.22;;;17.30;34.50;;;;;;2110214;28;20028;-58
2021/03/31 01:41:40;;;;;;;4.57;3.17;;;17.30;34.60;;;;;;2107484;28;20038;-58
2021/03/31 01:43:05;;;;;;;7.70;3.45;;;17.20;34.80;;;;;;2108503;28;20024;-58
2021/03/31 01:44:27;;;;;;;5.15;3.38;;;17.20;35.40;;;;;;2106163;28;20039;-58
2021/03/31 01:45:51;;;;;;;6.63;3.33;;;17.20;35.40;;;;;;2106244;28;20084;-58
2021/03/31 01:47:13;;;;;;;6.03;3.40;;;17.10;35.50;;;;;;2112518;28;20031;-58
2021/03/31 01:48:35;;;;;;;6.15;3.30;;;17.10;35.50;;;;;;2110115;28;20023;-58
2021/03/31 01:49:57;;;;;;;4.88;3.70;;;17.10;35.40;;;;;;2109838;28;20051;-58
2021/03/31 01:51:20;;;;;;;5.97;3.30;;;17.00;35.60;;;;;;2111691;28;20024;-58
2021/03/31 01:52:42;;;;;;;7.60;3.40;;;17.00;35.70;;;;;;2110967;28;20482;-58
2021/03/31 01:54:05;;;;;;;4.53;3.13;;;17.00;35.60;;;;;;2110541;28;20062;-58
2021/03/31 01:55:27;;;;;;;4.18;3.35;;;17.00;35.70;;;;;;2099374;28;20055;-58
2021/03/31 01:56:49;;;;;;;4.80;3.20;;;16.90;35.60;;;;;;2109492;28;20051;-58
2021/03/31 01:58:10;;;;;;;5.45;3.63;;;16.90;35.50;;;;;;2110297;28;20028;-58
2021/03/31 01:59:32;;;;;;;5.30;3.58;;;16.90;35.70;;;;;;2099450;28;20036;-58
2021/03/31 02:00:54;;;;;;;4.97;3.28;;;16.90;35.80;;;;;;2110008;28;20020;-58
2021/03/31 02:02:15;;;;;;;4.90;3.35;;;16.80;35.90;;;;;;2111484;28;20030;-58
2021/03/31 02:03:37;;;;;;;5.35;3.30;;;16.80;35.90;;;;;;2110391;28;20054;-57
2021/03/31 02:04:59;;;;;;;5.25;3.45;;;16.80;35.80;;;;;;2111987;28;20035;-58
2021/03/31 02:06:21;;;;;;;4.70;3.25;;;16.70;35.70;;;;;;2108561;28;20039;-59
2021/03/31 02:07:44;;;;;;;6.70;3.05;;;16.70;35.90;;;;;;2103339;28;20024;-57
2021/03/31 02:09:06;;;;;;;8.50;3.63;;;16.70;36.00;;;;;;2109725;28;20115;-58
2021/03/31 02:10:28;;;;;;;5.78;3.42;;;16.70;36.40;;;;;;2109795;28;20034;-58
2021/03/31 02:11:50;;;;;;;4.97;3.42;;;16.70;36.20;;;;;;2108244;28;20106;-58
2021/03/31 02:13:12;;;;;;;5.72;3.70;;;16.70;36.10;;;;;;2108868;28;20478;-57
2021/03/31 02:14:38;;;;;;;5.03;3.60;;;16.60;36.00;;;;;;2108489;28;20374;-58
2021/03/31 02:16:01;;;;;;;4.05;3.40;;;16.60;36.00;;;;;;2103467;28;20115;-56
2021/03/31 02:17:26;;;;;;;6.28;3.42;;;16.60;36.20;;;;;;2102080;28;20123;-58
2021/03/31 02:18:47;;;;;;;4.55;3.35;;;16.60;36.10;;;;;;2109672;28;20114;-57
2021/03/31 02:20:09;;;;;;;6.38;4.28;;;16.60;36.10;;;;;;2111451;28;20023;-57
2021/03/31 02:21:31;;;;;;;6.60;3.90;;;16.50;36.40;;;;;;2110881;28;20424;-58
2021/03/31 02:22:53;;;;;;;8.23;3.60;;;16.50;36.70;;;;;;2110237;28;20032;-58
2021/03/31 02:24:18;;;;;;;6.13;3.70;;;16.50;36.50;;;;;;2112024;28;20055;-58
2021/03/31 02:25:39;;;;;;;6.45;3.47;;;16.50;36.40;;;;;;2107562;28;20035;-58
2021/03/31 02:27:01;;;;;;;6.32;3.10;;;16.40;36.40;;;;;;2109849;28;20036;-58
2021/03/31 02:28:22;;;;;;;6.63;3.80;;;16.40;36.50;;;;;;2105689;28;20024;-58
2021/03/31 02:29:47;;;;;;;7.28;4.00;;;16.40;36.50;;;;;;2106955;28;20450;-58
2021/03/31 02:31:08;;;;;;;6.82;3.95;;;16.40;36.60;;;;;;2109110;28;20418;-57
2021/03/31 02:32:30;;;;;;;6.53;3.55;;;16.40;36.70;;;;;;2106502;28;20040;-57
2021/03/31 02:33:53;;;;;;;5.55;3.85;;;16.40;37.00;;;;;;2112459;28;20344;-57
2021/03/31 02:35:16;;;;;;;4.78;3.67;;;16.30;37.30;;;;;;2112304;28;20034;-58
2021/03/31 02:36:38;;;;;;;5.90;3.50;;;16.30;37.20;;;;;;2106985;28;20069;-58
2021/03/31 02:38:06;;;;;;;3.92;3.53;;;16.30;37.30;;;;;;2110234;28;20498;-58
2021/03/31 02:39:27;;;;;;;4.38;3.42;;;16.20;37.60;;;;;;2108943;28;20115;-57
2021/03/31 02:40:51;;;;;;;7.60;3.50;;;16.30;37.50;;;;;;2108925;28;20435;-57
2021/03/31 02:42:16;;;;;;;6.85;3.30;;;16.20;37.50;;;;;;2109191;28;20040;-58
2021/03/31 02:43:43;;;;;;;7.47;3.75;;;16.20;37.50;;;;;;2109987;28;20027;-58
2021/03/31 02:45:05;;;;;;;5.07;3.53;;;16.20;37.60;;;;;;2112845;28;20070;-58
2021/03/31 02:46:28;;;;;;;4.40;3.65;;;16.10;37.40;;;;;;2105855;28;20036;-58
2021/03/31 02:47:49;;;;;;;3.80;3.10;;;16.10;37.50;;;;;;2112302;28;20020;-59
2021/03/31 02:49:13;;;;;;;4.78;3.72;;;16.10;37.50;;;;;;2112560;28;20076;-56
2021/03/31 02:50:35;;;;;;;5.60;3.70;;;16.10;37.80;;;;;;2109934;28;20069;-58
2021/03/31 02:51:57;;;;;;;4.32;3.55;;;16.00;37.70;;;;;;2110594;28;20031;-58
2021/03/31 02:53:19;;;;;;;7.72;3.95;;;16.00;37.80;;;;;;2109692;28;20032;-58
2021/03/31 02:54:42;;;;;;;6.00;3.70;;;16.00;37.70;;;;;;2111374;28;20684;-58
2021/03/31 02:56:07;;;;;;;7.43;3.92;;;15.90;37.60;;;;;;2111922;28;20123;-58
2021/03/31 02:57:28;;;;;;;8.82;3.60;;;15.90;37.80;;;;;;2107578;28;21710;-58
2021/03/31 02:58:49;;;;;;;5.82;3.78;;;15.90;37.80;;;;;;2101626;28;20032;-59
2021/03/31 03:00:12;;;;;;;5.72;4.07;;;15.90;37.90;;;;;;2110280;28;20448;-59
2021/03/31 03:01:33;;;;;;;6.70;3.53;;;15.90;37.80;;;;;;2108511;28;20412;-57
2021/03/31 03:02:55;;;;;;;8.25;4.15;;;15.80;37.60;;;;;;2111975;28;20122;-58
2021/03/31 03:04:16;;;;;;;7.55;4.07;;;15.80;37.50;;;;;;2108173;28;20024;-58
2021/03/31 03:05:37;;;;;;;5.68;3.83;;;15.80;37.80;;;;;;2110311;28;20399;-58
2021/03/31 03:06:58;;;;;;;6.70;4.53;;;15.80;38.10;;;;;;2113787;28;20031;-59
2021/03/31 03:08:19;;;;;;;6.00;3.60;;;15.70;38.00;;;;;;2111985;28;20044;-58
2021/03/31 03:09:42;;;;;;;7.10;3.90;;;15.70;37.90;;;;;;2109669;28;20027;-59
2021/03/31 03:11:04;;;;;;;7.68;4.22;;;15.70;37.90;;;;;;2110815;28;20027;-59
2021/03/31 03:12:25;;;;;;;6.65;3.55;;;15.70;38.00;;;;;;2111199;28;20028;-58
2021/03/31 03:13:47;;;;;;;8.15;3.83;;;15.70;38.30;;;;;;2113360;27;20072;-57
2021/03/31 03:15:11;;;;;;;5.35;3.60;;;15.70;38.20;;;;;;2113418;28;20450;-56
2021/03/31 03:16:32;;;;;;;8.65;3.90;;;15.60;38.20;;;;;;2111033;28;20143;-58
2021/03/31 03:17:53;;;;;;;6.03;4.03;;;15.60;38.20;;;;;;2113279;28;20064;-58
2021/03/31 03:19:14;;;;;;;5.03;3.53;;;15.60;38.20;;;;;;2108868;28;20092;-58
2021/03/31 03:20:35;;;;;;;6.45;3.88;;;15.60;38.30;;;;;;2113638;27;20477;-58
2021/03/31 03:21:57;;;;;;;7.60;3.60;;;15.60;38.20;;;;;;2111148;28;20038;-58
2021/03/31 03:23:18;;;;;;;6.47;3.97;;;15.50;38.00;;;;;;2111023;28;20134;-58
2021/03/31 03:24:43;;;;;;;7.38;4.03;;;15.50;38.00;;;;;;2111083;28;20032;-58
2021/03/31 03:26:05;;;;;;;6.20;3.88;;;15.50;38.80;;;;;;2112521;28;20228;-57
2021/03/31 03:27:26;;;;;;;6.85;3.78;;;15.50;38.30;;;;;;2105480;28;20367;-57
2021/03/31 03:28:49;;;;;;;4.53;3.65;;;15.50;38.60;;;;;;2101727;28;20040;-57
2021/03/31 03:30:13;;;;;;;4.25;3.70;;;15.50;38.70;;;;;;2110475;28;20364;-56
2021/03/31 03:31:36;;;;;;;5.50;4.03;;;15.50;38.90;;;;;;2108851;28;20036;-57
2021/03/31 03:32:59;;;;;;;4.85;3.95;;;15.50;38.90;;;;;;2113896;27;20061;-57
2021/03/31 03:34:20;;;;;;;6.25;3.58;;;15.50;39.20;;;;;;2113569;27;20095;-57
2021/03/31 03:35:42;;;;;;;7.03;4.13;;;15.40;39.30;;;;;;2113370;28;20031;-56
2021/03/31 03:37:03;;;;;;;7.32;4.78;;;15.40;39.40;;;;;;2110918;28;20031;-56
2021/03/31 03:38:24;;;;;;;7.53;3.88;;;15.40;39.20;;;;;;2112872;28;20032;-56
2021/03/31 03:39:45;;;;;;;4.50;3.67;;;15.40;39.20;;;;;;2113802;28;20023;-57
2021/03/31 03:41:08;;;;;;;7.55;4.35;;;15.40;39.00;;;;;;2112081;28;20161;-57
2021/03/31 03:42:30;;;;;;;5.30;3.58;;;15.40;39.00;;;;;;2106050;28;20491;-55
2021/03/31 03:43:54;;;;;;;5.50;3.80;;;15.40;38.90;;;;;;2101458;28;20773;-58
2021/03/31 03:45:16;;;;;;;6.10;4.00;;;15.30;39.10;;;;;;2110088;28;20043;-55
2021/03/31 03:46:37;;;;;;;4.45;3.90;;;15.30;39.10;;;;;;2111078;27;20024;-55
2021/03/31 03:47:59;;;;;;;6.32;3.90;;;15.30;38.80;;;;;;2113701;27;20027;-56
2021/03/31 03:49:21;;;;;;;6.13;3.60;;;15.30;38.80;;;;;;2104521;28;20028;-57
2021/03/31 03:50:42;;;;;;;4.90;3.78;;;15.30;38.90;;;;;;2109399;28;20461;-56
2021/03/31 03:52:08;;;;;;;5.28;3.75;;;15.30;38.90;;;;;;2110968;28;20027;-59
2021/03/31 03:53:29;;;;;;;5.63;4.20;;;15.30;39.00;;;;;;2111578;28;20048;-58
2021/03/31 03:54:54;;;;;;;6.43;3.97;;;15.30;39.00;;;;;;2112921;28;20028;-57
2021/03/31 03:56:15;;;;;;;6.57;3.70;;;15.30;38.90;;;;;;2113093;28;20481;-58
2021/03/31 03:57:36;;;;;;;6.47;3.90;;;15.20;38.60;;;;;;2108716;28;20385;-59
2021/03/31 03:58:57;;;;;;;5.70;3.97;;;15.30;38.70;;;;;;2112416;28;20066;-58
2021/03/31 04:00:22;;;;;;;7.03;4.20;;;15.20;38.70;;;;;;2113449;28;20123;-56
2021/03/31 04:01:44;;;;;;;6.80;3.95;;;15.30;38.70;;;;;;2113789;28;20028;-59
2021/03/31 04:03:05;;;;;;;7.15;4.28;;;15.30;38.60;;;;;;2112821;27;20481;-58
2021/03/31 04:04:26;;;;;;;6.03;3.75;;;15.30;38.70;;;;;;2107952;28;20527;-57
2021/03/31 04:05:47;;;;;;;5.97;3.92;;;15.30;38.80;;;;;;2110345;28;20024;-58
2021/03/31 04:07:08;;;;;;;4.90;3.90;;;15.30;38.80;;;;;;2113503;28;20039;-58
2021/03/31 04:08:29;;;;;;;5.38;4.10;;;15.30;38.80;;;;;;2113392;28;20028;-57
2021/03/31 04:09:50;;;;;;;4.85;3.58;;;15.30;38.80;;;;;;2113241;28;20054;-57
2021/03/31 04:11:11;;;;;;;5.40;3.88;;;15.20;38.80;;;;;;2112691;28;20031;-58
2021/03/31 04:12:35;;;;;;;4.47;3.92;;;15.20;38.70;;;;;;2104487;28;20989;-58
2021/03/31 04:13:59;;;;;;;4.90;3.50;;;15.20;38.80;;;;;;2116162;27;20020;-58
2021/03/31 04:15:21;;;;;;;6.20;4.35;;;15.30;39.10;;;;;;2115218;27;20036;-58
2021/03/31 04:16:44;;;;;;;6.15;3.83;;;15.20;38.90;;;;;;2113533;28;20035;-57
2021/03/31 04:18:06;;;;;;;6.35;3.63;;;15.20;39.00;;;;;;2112456;28;20460;-58
2021/03/31 04:19:28;;;;;;;4.93;3.28;;;15.20;38.90;;;;;;2112917;28;20031;-57
2021/03/31 04:20:51;;;;;;;6.90;3.90;;;15.30;38.90;;;;;;2112905;28;20038;-58
2021/03/31 04:22:12;;;;;;;6.63;3.95;;;15.30;38.90;;;;;;2112345;28;20043;-57
2021/03/31 04:23:33;;;;;;;4.10;3.45;;;15.20;38.90;;;;;;2107657;28;20032;-55
2021/03/31 04:24:55;;;;;;;8.05;3.80;;;15.30;38.80;;;;;;2111278;28;20473;-58
2021/03/31 04:26:16;;;;;;;5.38;3.70;;;15.20;38.80;;;;;;2105577;28;20028;-59
2021/03/31 04:27:38;;;;;;;6.18;4.20;;;15.30;38.80;;;;;;2110756;28;20027;-57
2021/03/31 04:29:00;;;;;;;4.80;3.92;;;15.20;38.80;;;;;;2113735;28;20047;-58
2021/03/31 04:30:22;;;;;;;7.00;4.28;;;15.20;38.80;;;;;;2112924;28;20028;-59
2021/03/31 04:31:44;;;;;;;5.65;4.07;;;15.20;38.70;;;;;;2113971;27;20042;-59
2021/03/31 04:33:07;;;;;;;6.40;4.30;;;15.20;38.90;;;;;;2112381;28;20043;-59
2021/03/31 04:34:29;;;;;;;4.32;3.40;;;15.20;38.80;;;;;;2111014;28;20040;-59
2021/03/31 04:35:53;;;;;;;6.57;3.47;;;15.20;38.80;;;;;;2111559;28;20082;-59
2021/03/31 04:37:14;;;;;;;6.38;4.03;;;15.20;39.10;;;;;;2096781;28;20403;-59
2021/03/31 04:38:35;;;;;;;4.55;3.33;;;15.20;38.80;;;;;;2110115;28;20389;-59
2021/03/31 04:39:56;;;;;;;5.68;3.60;;;15.20;38.70;;;;;;2113314;28;20469;-59
2021/03/31 04:41:17;;;;;;;6.65;3.58;;;15.20;38.60;;;;;;2104162;28;20122;-59
2021/03/31 04:42:39;;;;;;;8.40;4.05;;;15.20;38.80;;;;;;2108637;27;20333;-59
2021/03/31 04:44:01;;;;;;;6.05;3.65;;;15.20;38.90;;;;;;2113834;28;20038;-59
2021/03/31 04:45:21;;;;;;;10.75;3.95;;;15.20;38.60;;;;;;2098057;28;20036;-59
2021/03/31 04:46:42;;;;;;;5.70;3.75;;;15.20;38.60;;;;;;2110286;28;20111;-59
2021/03/31 04:48:03;;;;;;;4.78;3.65;;;15.20;38.60;;;;;;2111523;28;20070;-59
2021/03/31 04:49:24;;;;;;;4.47;3.67;;;15.20;38.50;;;;;;2113965;28;20024;-59
2021/03/31 04:50:45;;;;;;;6.22;3.50;;;15.20;38.40;;;;;;2111819;28;20031;-59
2021/03/31 04:52:07;;;;;;;5.05;3.28;;;15.20;38.40;;;;;;2114051;28;20024;-59
2021/03/31 04:53:28;;;;;;;4.90;3.15;;;15.20;38.30;;;;;;2111634;28;20036;-59
2021/03/31 04:54:48;;;;;;;4.68;3.78;;;15.20;38.50;;;;;;2118110;27;20026;-59
2021/03/31 04:56:09;;;;;;;4.65;3.42;;;15.20;38.30;;;;;;2113228;28;20140;-59
2021/03/31 04:57:30;;;;;;;4.85;3.58;;;15.20;38.40;;;;;;2098889;28;20461;-59
2021/03/31 04:58:51;;;;;;;5.60;3.38;;;15.20;38.30;;;;;;2100142;28;20066;-58
2021/03/31 05:00:13;;;;;;;6.45;3.75;;;15.10;38.40;;;;;;2110485;28;20050;-59
2021/03/31 05:01:33;;;;;;;6.18;3.70;;;15.10;38.50;;;;;;2107388;28;20040;-59
2021/03/31 05:02:54;;;;;;;5.28;3.13;;;15.10;38.60;;;;;;2112788;28;20023;-59
2021/03/31 05:04:15;;;;;;;5.18;3.90;;;15.10;38.60;;;;;;2112117;28;20477;-59
2021/03/31 05:05:37;;;;;;;5.18;3.75;;;15.10;38.50;;;;;;2109089;28;20028;-59
2021/03/31 05:06:58;;;;;;;6.15;4.03;;;15.10;38.70;;;;;;2113762;28;20433;-59
2021/03/31 05:08:19;;;;;;;4.95;3.80;;;15.10;38.70;;;;;;2114180;27;20095;-59
2021/03/31 05:09:40;;;;;;;4.63;3.72;;;15.10;38.50;;;;;;2112096;28;20040;-58
2021/03/31 05:11:01;;;;;;;5.60;3.70;;;15.10;38.50;;;;;;2112332;28;20067;-59
2021/03/31 05:12:24;;;;;;;6.03;3.50;;;15.10;38.50;;;;;;2112963;28;20036;-59
2021/03/31 05:13:45;;;;;;;6.18;3.38;;;15.10;38.70;;;;;;2110869;28;20566;-59
2021/03/31 05:15:06;;;;;;;4.95;3.55;;;15.10;38.60;;;;;;2112240;28;20047;-59
2021/03/31 05:16:27;;;;;;;5.28;3.63;;;15.10;38.50;;;;;;2107067;28;20671;-59
2021/03/31 05:17:48;;;;;;;6.97;3.55;;;15.10;38.50;;;;;;2112394;28;20119;-59
2021/03/31 05:19:09;;;;;;;4.13;3.45;;;15.10;38.50;;;;;;2111884;28;20524;-59
2021/03/31 05:20:30;;;;;;;5.57;4.18;;;15.10;38.40;;;;;;2106780;28;20036;-59
2021/03/31 05:21:51;;;;;;;6.40;4.32;;;15.10;38.40;;;;;;2113118;28;20028;-59
2021/03/31 05:23:12;;;;;;;5.80;3.72;;;15.10;38.50;;;;;;2111191;28;20032;-59
2021/03/31 05:24:35;;;;;;;5.45;3.53;;;15.10;38.90;;;;;;2113015;28;20046;-59
2021/03/31 05:25:56;;;;;;;5.22;3.40;;;15.10;38.90;;;;;;2112293;28;20023;-59
2021/03/31 05:27:18;;;;;;;5.00;3.95;;;15.10;38.80;;;;;;2107896;27;20032;-59
2021/03/31 05:28:39;;;;;;;6.07;3.67;;;15.10;38.90;;;;;;2110035;28;20031;-59
2021/03/31 05:30:01;;;;;;;4.25;3.85;;;15.10;39.00;;;;;;2109541;28;20020;-59
2021/03/31 05:31:22;;;;;;;4.35;3.80;;;15.10;39.20;;;;;;2111455;28;20028;-59
2021/03/31 05:32:43;;;;;;;7.75;3.85;;;15.10;39.20;;;;;;2110269;28;20038;-59
2021/03/31 05:34:04;;;;;;;6.68;3.95;;;15.00;39.20;;;;;;2111071;28;20086;-58
2021/03/31 05:35:25;;;;;;;4.97;3.40;;;15.00;39.20;;;;;;2106048;28;20035;-58
2021/03/31 05:36:46;;;;;;;7.60;4.03;;;15.00;39.20;;;;;;2110779;28;20020;-58
2021/03/31 05:38:07;;;;;;;6.25;4.13;;;15.00;39.10;;;;;;2111130;28;20027;-58
2021/03/31 05:39:28;;;;;;;7.43;4.18;;;15.00;39.20;;;;;;2111195;28;20526;-58
2021/03/31 05:40:49;;;;;;;9.85;4.20;;;15.00;39.00;;;;;;2109568;28;20024;-58
2021/03/31 05:42:10;;;;;;;8.07;4.38;;;15.00;39.30;;;;;;2109779;28;20084;-59
2021/03/31 05:43:31;;;;;;;6.30;4.10;;;15.00;39.40;;;;;;2110452;28;20034;-60
2021/03/31 05:44:53;;;;;;;8.98;4.72;;;15.00;39.50;;;;;;2110475;28;20350;-59
2021/03/31 05:46:14;;;;;;;6.03;4.30;;;15.00;39.60;;;;;;2110394;28;20115;-59
2021/03/31 05:47:37;;;;;;;5.03;3.65;;;15.00;39.60;;;;;;2107205;28;20028;-59
2021/03/31 05:48:58;;;;;;;6.15;4.10;;;15.00;39.40;;;;;;2109990;28;20047;-59
2021/03/31 05:50:20;;;;;;;8.13;4.38;;;15.00;39.50;;;;;;2109987;28;20130;-59
2021/03/31 05:51:41;;;;;;;6.22;4.53;;;15.00;39.50;;;;;;2110288;28;20035;-59
2021/03/31 05:53:02;;;;;;;7.75;4.25;;;15.00;39.40;;;;;;2108204;28;20114;-59
2021/03/31 05:54:27;;;;;;;7.10;5.05;;;15.00;39.50;;;;;;2109565;28;20019;-59
2021/03/31 05:55:48;;;;;;;7.03;4.40;;;15.00;39.70;;;;;;2110182;28;20036;-59
2021/03/31 05:57:09;;;;;;;9.10;4.93;;;15.00;39.60;;;;;;2110423;28;20469;-59
2021/03/31 05:58:30;;;;;;;7.82;4.90;;;15.00;39.60;;;;;;2108802;28;20465;-58
2021/03/31 05:59:52;;;;;;;8.88;4.25;;;15.00;39.70;;;;;;2108475;28;20142;-57
2021/03/31 06:01:14;;;;;;;8.63;4.63;;;15.00;39.60;;;;;;2109363;28;20027;-58
2021/03/31 06:02:35;;;;;;;9.00;4.57;;;15.00;39.60;;;;;;2111218;28;20038;-58
2021/03/31 06:03:57;;;;;;;7.72;4.85;;;15.00;39.80;;;;;;2108399;28;20998;-58
2021/03/31 06:05:19;;;;;;;7.72;4.88;;;15.00;39.80;;;;;;2110569;28;20036;-58
2021/03/31 06:06:40;;;;;;;9.30;5.25;;;15.00;39.70;;;;;;2109053;28;20039;-58
2021/03/31 06:08:01;;;;;;;7.10;4.63;;;15.00;39.70;;;;;;2110058;28;20027;-58
2021/03/31 06:09:22;;;;;;;9.50;5.13;;;15.00;39.80;;;;;;2111644;28;20135;-58
2021/03/31 06:10:43;;;;;;;7.65;4.82;;;15.00;39.90;;;;;;2112340;28;20054;-58
2021/03/31 06:12:04;;;;;;;9.82;5.10;;;15.00;40.00;;;;;;2103070;28;20040;-60
2021/03/31 06:13:25;;;;;;;8.60;5.28;;;15.00;40.00;;;;;;2107772;28;20084;-58
2021/03/31 06:14:46;;;;;;;7.47;5.10;;;15.00;40.00;;;;;;2107474;28;20044;-58
2021/03/31 06:16:28;;;;;;;6.28;4.55;;;15.00;40.00;;;;;;2110555;28;20031;-58
2021/03/31 06:17:53;;;;;;;8.57;5.35;;;15.00;40.00;;;;;;2109024;28;20023;-60
2021/03/31 06:19:16;;;;;;;7.05;5.07;;;15.00;40.40;;;;;;2111512;28;20093;-58
2021/03/31 06:20:55;;;;;;;7.18;4.70;;;15.10;40.10;;;;;;2108908;28;20038;-58
2021/03/31 06:22:33;;;;;;;6.97;4.88;;;15.10;40.00;;;;;;2111765;28;20100;-58
2021/03/31 06:24:10;;;;;;;8.27;4.90;;;15.10;39.70;;;;;;2108469;28;20267;-58
2021/03/31 06:25:31;;;;;;;9.18;5.35;;;15.10;39.50;;;;;;2107205;28;20247;-58
2021/03/31 06:26:52;;;;;;;8.00;5.18;;;15.10;39.40;;;;;;2109164;28;20020;-58
2021/03/31 06:28:25;;;;;;;6.53;4.88;;;15.10;39.40;;;;;;2110206;28;20020;-59
2021/03/31 06:30:02;;;;;;;7.88;5.22;;;15.10;39.70;;;;;;2107380;28;20070;-57
2021/03/31 06:31:29;;;;;;;9.13;5.18;;;15.10;39.60;;;;;;2109851;28;20507;-59
2021/03/31 06:32:54;;;;;;;8.48;5.43;;;15.20;39.70;;;;;;2110033;28;20127;-60
2021/03/31 06:34:25;;;;;;;7.47;5.22;;;15.20;39.60;;;;;;2107941;28;20413;-59
2021/03/31 06:35:51;;;;;;;8.60;5.28;;;15.20;39.60;;;;;;2108003;28;20039;-57
2021/03/31 06:37:27;;;;;;;8.77;5.47;;;15.20;39.60;;;;;;2110263;28;20531;-57
2021/03/31 06:38:51;;;;;;;8.60;5.63;;;15.30;39.60;;;;;;2111927;28;20038;-58
2021/03/31 06:40:30;;;;;;;8.35;5.63;;;15.30;39.40;;;;;;2109929;28;20024;-58
2021/03/31 06:41:57;;;;;;;10.88;5.80;;;15.30;39.60;;;;;;2107867;28;20032;-58
2021/03/31 06:43:32;;;;;;;7.70;5.05;;;15.30;39.30;;;;;;2101665;28;20443;-59
2021/03/31 06:45:00;;;;;;;8.75;5.22;;;15.40;39.30;;;;;;2107183;28;20032;-59
2021/03/31 06:46:32;;;;;;;8.50;5.35;;;15.40;39.30;;;;;;2110312;28;20043;-59
2021/03/31 06:47:59;;;;;;;8.93;5.05;;;15.40;39.40;;;;;;2110195;28;20540;-59
2021/03/31 06:49:21;;;;;;;8.95;5.15;;;15.50;39.30;;;;;;2108243;28;20036;-59
2021/03/31 06:50:42;;;;;;;8.20;5.13;;;15.50;39.30;;;;;;2109825;28;20032;-59
2021/03/31 06:52:07;;;;;;;9.45;5.68;;;15.50;39.20;;;;;;2111031;28;20470;-59
2021/03/31 06:53:30;;;;;;;8.85;5.25;;;15.50;39.20;;;;;;2109946;28;20595;-59
2021/03/31 06:54:54;;;;;;;11.20;6.00;;;15.60;39.30;;;;;;2110335;28;20066;-59
2021/03/31 06:56:15;;;;;;;9.10;5.47;;;15.60;39.30;;;;;;2109798;28;20420;-59
2021/03/31 06:57:36;;;;;;;9.93;5.50;;;15.60;39.20;;;;;;2108953;28;20537;-59
2021/03/31 06:59:00;;;;;;;10.88;6.05;;;15.60;39.20;;;;;;2101123;28;20028;-59
2021/03/31 07:00:27;;;;;;;9.32;5.63;;;15.70;39.20;;;;;;2100940;28;20515;-59
2021/03/31 07:01:48;;;;;;;7.40;5.43;;;15.70;39.20;;;;;;2110537;28;20027;-59
2021/03/31 07:03:10;;;;;;;11.35;5.28;;;15.80;39.20;;;;;;2110544;28;20039;-58
2021/03/31 07:04:32;;;;;;;9.45;6.00;;;15.80;39.10;;;;;;2111163;28;20074;-59
2021/03/31 07:05:53;;;;;;;9.88;6.40;;;15.80;39.00;;;;;;2110174;28;21410;-59
2021/03/31 07:07:14;;;;;;;11.23;5.75;;;15.90;39.00;;;;;;2109412;28;20451;-59
2021/03/31 07:08:35;;;;;;;12.45;6.10;;;15.90;39.00;;;;;;2097104;28;20060;-59
2021/03/31 07:10:11;;;;;;;9.35;6.13;;;16.00;39.10;;;;;;2106477;28;20198;-59
2021/03/31 07:11:41;;;;;;;15.35;6.18;;;16.00;38.90;;;;;;2108150;28;20137;-59
2021/03/31 07:13:02;;;;;;;9.48;5.70;;;16.00;38.80;;;;;;2109014;28;20023;-58